createdAt,value
2017-08-18T00:00:21.301Z,0
2017-08-18T00:01:21.241Z,0
2017-08-18T00:02:21.304Z,0
2017-08-18T00:03:21.301Z,0
2017-08-18T00:04:21.303Z,0
2017-08-18T00:05:21.302Z,0
2017-08-18T00:06:21.269Z,0
2017-08-18T00:07:21.245Z,0
2017-08-18T00:08:21.250Z,0
2017-08-18T00:09:21.270Z,0
2017-08-18T00:10:21.274Z,0
2017-08-18T00:11:21.247Z,0
2017-08-18T00:12:21.277Z,0
2017-08-18T00:13:21.244Z,0
2017-08-18T00:14:21.275Z,0
2017-08-18T00:15:21.277Z,0
2017-08-18T00:16:21.253Z,0
2017-08-18T00:17:21.260Z,0
2017-08-18T00:18:21.355Z,0
2017-08-18T00:19:21.257Z,0
2017-08-18T00:20:21.351Z,0
2017-08-18T00:21:21.311Z,0
2017-08-18T00:22:21.263Z,0
2017-08-18T00:23:21.346Z,0
2017-08-18T00:24:21.324Z,0
2017-08-18T00:25:21.262Z,0
2017-08-18T00:26:21.287Z,0
2017-08-18T00:27:21.326Z,0
2017-08-18T00:28:21.291Z,0
2017-08-18T00:29:21.282Z,0
2017-08-18T00:30:21.285Z,0
2017-08-18T00:31:21.269Z,0
2017-08-18T00:32:21.288Z,0
2017-08-18T00:33:21.245Z,0
2017-08-18T00:34:21.264Z,0
2017-08-18T00:35:21.266Z,0
2017-08-18T00:36:21.275Z,0
2017-08-18T00:37:21.310Z,0
2017-08-18T00:38:21.266Z,0
2017-08-18T00:39:21.303Z,0
2017-08-18T00:40:21.273Z,0
2017-08-18T00:41:21.270Z,0
2017-08-18T00:42:21.269Z,0
2017-08-18T00:43:21.323Z,0
2017-08-18T00:44:21.340Z,0
2017-08-18T00:45:21.298Z,0
2017-08-18T00:46:21.179Z,0
2017-08-18T00:47:21.173Z,0
2017-08-18T00:48:21.265Z,0
2017-08-18T00:49:21.206Z,0
2017-08-18T00:50:21.274Z,0
2017-08-18T00:51:21.169Z,0
2017-08-18T00:52:21.176Z,0
2017-08-18T00:53:21.243Z,0
2017-08-18T00:54:21.172Z,0
2017-08-18T00:55:21.266Z,0
2017-08-18T00:56:21.338Z,0
2017-08-18T00:57:21.269Z,0
2017-08-18T00:58:21.303Z,0
2017-08-18T00:59:21.302Z,0
2017-08-18T01:00:21.306Z,0
2017-08-18T01:01:21.341Z,0
2017-08-18T01:02:21.276Z,0
2017-08-18T01:03:21.276Z,0
2017-08-18T01:04:21.338Z,0
2017-08-18T01:05:21.280Z,0
2017-08-18T01:06:21.276Z,0
2017-08-18T01:07:21.267Z,0
2017-08-18T01:08:21.267Z,0
2017-08-18T01:09:21.221Z,0
2017-08-18T01:10:21.303Z,0
2017-08-18T01:11:21.285Z,0
2017-08-18T01:12:21.338Z,0
2017-08-18T01:13:21.273Z,0
2017-08-18T01:14:21.223Z,0
2017-08-18T01:15:21.221Z,0
2017-08-18T01:16:21.295Z,0
2017-08-18T01:17:21.356Z,0
2017-08-18T01:18:21.384Z,0
2017-08-18T01:19:21.389Z,0
2017-08-18T01:20:21.320Z,0
2017-08-18T01:21:21.384Z,0
2017-08-18T01:22:21.359Z,0
2017-08-18T01:23:21.390Z,0
2017-08-18T01:24:21.384Z,0
2017-08-18T01:25:21.319Z,0
2017-08-18T01:26:21.364Z,0
2017-08-18T01:27:21.302Z,0
2017-08-18T01:28:21.388Z,0
2017-08-18T01:29:21.363Z,0
2017-08-18T01:30:21.320Z,0
2017-08-18T01:31:21.388Z,0
2017-08-18T01:32:21.298Z,0
2017-08-18T01:33:21.334Z,0
2017-08-18T01:34:21.329Z,0
2017-08-18T01:35:21.327Z,0
2017-08-18T01:36:21.390Z,0
2017-08-18T01:37:21.359Z,0
2017-08-18T01:38:21.327Z,0
2017-08-18T01:39:21.365Z,0
2017-08-18T01:40:21.358Z,0
2017-08-18T01:41:21.329Z,0
2017-08-18T01:42:21.362Z,0
2017-08-18T01:43:21.330Z,0
2017-08-18T01:44:21.359Z,0
2017-08-18T01:45:21.359Z,0
2017-08-18T01:46:21.495Z,0
2017-08-18T01:47:21.361Z,0
2017-08-18T01:48:21.363Z,0
2017-08-18T01:49:21.367Z,0
2017-08-18T01:50:21.307Z,0
2017-08-18T01:51:21.366Z,0
2017-08-18T01:52:21.309Z,0
2017-08-18T01:53:21.337Z,0
2017-08-18T01:54:21.337Z,0
2017-08-18T01:55:21.393Z,0
2017-08-18T01:56:21.369Z,0
2017-08-18T01:57:21.350Z,0
2017-08-18T01:58:21.317Z,0
2017-08-18T01:59:21.315Z,0
2017-08-18T02:00:21.352Z,0
2017-08-18T02:01:21.390Z,0
2017-08-18T02:02:21.317Z,0
2017-08-18T02:03:21.320Z,0
2017-08-18T02:04:21.417Z,0
2017-08-18T02:05:21.355Z,0
2017-08-18T02:06:21.396Z,0
2017-08-18T02:07:21.349Z,0
2017-08-18T02:08:21.298Z,0
2017-08-18T02:09:21.296Z,0
2017-08-18T02:10:21.320Z,0
2017-08-18T02:11:21.344Z,0
2017-08-18T02:12:21.321Z,0
2017-08-18T02:13:21.305Z,0
2017-08-18T02:14:21.345Z,0
2017-08-18T02:15:21.337Z,0
2017-08-18T02:16:21.331Z,0
2017-08-18T02:17:21.385Z,0
2017-08-18T02:18:21.421Z,0
2017-08-18T02:19:21.340Z,0
2017-08-18T02:20:21.387Z,0
2017-08-18T02:21:21.354Z,0
2017-08-18T02:22:21.363Z,0
2017-08-18T02:23:21.384Z,0
2017-08-18T02:24:21.457Z,0
2017-08-18T02:25:21.373Z,0
2017-08-18T02:26:21.338Z,0
2017-08-18T02:27:21.336Z,0
2017-08-18T02:28:21.333Z,0
2017-08-18T02:29:21.387Z,0
2017-08-18T02:30:21.429Z,0
2017-08-18T02:31:21.336Z,0
2017-08-18T02:32:21.425Z,0
2017-08-18T02:33:21.341Z,0
2017-08-18T02:34:21.335Z,0
2017-08-18T02:35:21.428Z,0
2017-08-18T02:36:21.376Z,0
2017-08-18T02:37:21.316Z,0
2017-08-18T02:38:21.365Z,0
2017-08-18T02:39:21.351Z,0
2017-08-18T02:40:21.364Z,0
2017-08-18T02:41:21.337Z,0
2017-08-18T02:42:21.364Z,0
2017-08-18T02:43:21.344Z,0
2017-08-18T02:44:21.321Z,0
2017-08-18T02:45:21.346Z,0
2017-08-18T02:46:21.343Z,0
2017-08-18T02:47:21.398Z,0
2017-08-18T02:48:21.338Z,0
2017-08-18T02:49:21.368Z,0
2017-08-18T02:50:21.370Z,0
2017-08-18T02:51:21.401Z,0
2017-08-18T02:52:21.341Z,0
2017-08-18T02:53:21.344Z,0
2017-08-18T02:54:21.343Z,0
2017-08-18T02:55:21.347Z,0
2017-08-18T02:56:21.374Z,0
2017-08-18T02:57:21.350Z,0
2017-08-18T02:58:21.448Z,0
2017-08-18T02:59:21.359Z,0
2017-08-18T03:00:21.379Z,0
2017-08-18T03:01:21.411Z,0
2017-08-18T03:02:21.390Z,0
2017-08-18T03:03:21.453Z,0
2017-08-18T03:04:21.385Z,0
2017-08-18T03:05:21.416Z,0
2017-08-18T03:06:21.407Z,0
2017-08-18T03:07:21.358Z,0
2017-08-18T03:08:21.429Z,0
2017-08-18T03:09:21.394Z,0
2017-08-18T03:10:21.412Z,0
2017-08-18T03:11:21.449Z,0
2017-08-18T03:12:21.417Z,0
2017-08-18T03:13:21.360Z,0
2017-08-18T03:14:21.421Z,0
2017-08-18T03:15:21.389Z,0
2017-08-18T03:16:21.457Z,0
2017-08-18T03:17:21.355Z,0
2017-08-18T03:18:21.386Z,0
2017-08-18T03:19:21.414Z,0
2017-08-18T03:20:21.360Z,0
2017-08-18T03:21:21.387Z,0
2017-08-18T03:22:21.419Z,0
2017-08-18T03:23:21.421Z,0
2017-08-18T03:24:21.359Z,0
2017-08-18T03:25:21.366Z,0
2017-08-18T03:26:21.361Z,0
2017-08-18T03:27:21.403Z,0
2017-08-18T03:28:21.399Z,0
2017-08-18T03:29:21.366Z,0
2017-08-18T03:30:21.371Z,0
2017-08-18T03:31:21.442Z,0
2017-08-18T03:32:21.466Z,0
2017-08-18T03:33:21.474Z,0
2017-08-18T03:34:21.398Z,0
2017-08-18T03:35:21.400Z,0
2017-08-18T03:36:21.507Z,0
2017-08-18T03:37:21.403Z,0
2017-08-18T03:38:21.413Z,0
2017-08-18T03:39:21.408Z,0
2017-08-18T03:40:21.450Z,0
2017-08-18T03:41:21.490Z,0
2017-08-18T03:42:21.474Z,0
2017-08-18T03:43:21.431Z,0
2017-08-18T03:44:21.469Z,0
2017-08-18T03:45:21.407Z,0
2017-08-18T03:46:21.476Z,0
2017-08-18T03:47:21.454Z,0
2017-08-18T03:48:21.403Z,0
2017-08-18T03:49:21.395Z,0
2017-08-18T03:50:21.433Z,0
2017-08-18T03:51:21.406Z,0
2017-08-18T03:52:21.399Z,0
2017-08-18T03:53:21.357Z,0
2017-08-18T03:54:21.378Z,0
2017-08-18T03:55:21.408Z,0
2017-08-18T03:56:21.405Z,5
2017-08-18T03:57:21.413Z,5
2017-08-18T03:58:21.480Z,5
2017-08-18T03:59:21.425Z,5
2017-08-18T04:00:21.417Z,5
2017-08-18T04:01:21.385Z,11
2017-08-18T04:02:21.388Z,11
2017-08-18T04:03:21.390Z,11
2017-08-18T04:04:21.486Z,11
2017-08-18T04:05:21.429Z,16
2017-08-18T04:06:21.443Z,16
2017-08-18T04:07:21.471Z,22
2017-08-18T04:08:21.389Z,22
2017-08-18T04:09:21.413Z,22
2017-08-18T04:10:21.449Z,28
2017-08-18T04:11:21.415Z,28
2017-08-18T04:12:21.472Z,33
2017-08-18T04:13:21.389Z,33
2017-08-18T04:14:21.390Z,39
2017-08-18T04:15:21.417Z,45
2017-08-18T04:16:21.450Z,50
2017-08-18T04:17:21.424Z,56
2017-08-18T04:18:21.433Z,56
2017-08-18T04:19:21.397Z,56
2017-08-18T04:20:21.461Z,61
2017-08-18T04:21:21.400Z,61
2017-08-18T04:22:21.472Z,61
2017-08-18T04:23:21.469Z,61
2017-08-18T04:24:21.404Z,61
2017-08-18T04:25:21.467Z,61
2017-08-18T04:26:21.459Z,67
2017-08-18T04:27:21.422Z,73
2017-08-18T04:28:21.477Z,73
2017-08-18T04:29:21.408Z,73
2017-08-18T04:30:21.460Z,78
2017-08-18T04:31:21.462Z,90
2017-08-18T04:32:21.474Z,95
2017-08-18T04:33:21.444Z,106
2017-08-18T04:34:21.468Z,118
2017-08-18T04:35:21.411Z,123
2017-08-18T04:36:21.429Z,129
2017-08-18T04:37:21.441Z,129
2017-08-18T04:38:21.432Z,129
2017-08-18T04:39:21.431Z,123
2017-08-18T04:40:21.442Z,118
2017-08-18T04:41:21.414Z,112
2017-08-18T04:42:21.502Z,106
2017-08-18T04:43:21.476Z,106
2017-08-18T04:44:21.412Z,106
2017-08-18T04:45:21.474Z,112
2017-08-18T04:46:21.439Z,118
2017-08-18T04:47:21.418Z,129
2017-08-18T04:48:21.452Z,151
2017-08-18T04:49:21.475Z,163
2017-08-18T04:50:21.450Z,180
2017-08-18T04:51:21.418Z,191
2017-08-18T04:52:21.419Z,196
2017-08-18T04:53:21.423Z,196
2017-08-18T04:54:21.456Z,213
2017-08-18T04:55:21.420Z,219
2017-08-18T04:56:21.516Z,230
2017-08-18T04:57:21.482Z,236
2017-08-18T04:58:21.624Z,236
2017-08-18T04:59:21.496Z,247
2017-08-18T05:00:21.519Z,247
2017-08-18T05:01:21.481Z,258
2017-08-18T05:02:21.429Z,270
2017-08-18T05:03:21.424Z,292
2017-08-18T05:04:21.518Z,303
2017-08-18T05:05:21.450Z,320
2017-08-18T05:06:21.536Z,326
2017-08-18T05:07:21.445Z,337
2017-08-18T05:08:21.485Z,343
2017-08-18T05:09:21.515Z,354
2017-08-18T05:10:21.503Z,360
2017-08-18T05:11:21.516Z,365
2017-08-18T05:12:21.461Z,371
2017-08-18T05:13:21.495Z,371
2017-08-18T05:14:21.518Z,365
2017-08-18T05:15:21.486Z,354
2017-08-18T05:16:21.428Z,343
2017-08-18T05:17:21.452Z,331
2017-08-18T05:18:21.449Z,320
2017-08-18T05:19:21.524Z,320
2017-08-18T05:20:21.424Z,337
2017-08-18T05:21:21.452Z,365
2017-08-18T05:22:21.454Z,376
2017-08-18T05:23:21.490Z,393
2017-08-18T05:24:21.497Z,405
2017-08-18T05:25:21.456Z,405
2017-08-18T05:26:21.492Z,405
2017-08-18T05:27:21.427Z,405
2017-08-18T05:28:21.426Z,405
2017-08-18T05:29:21.457Z,393
2017-08-18T05:30:21.456Z,376
2017-08-18T05:31:21.457Z,354
2017-08-18T05:32:21.494Z,331
2017-08-18T05:33:21.460Z,315
2017-08-18T05:34:21.462Z,292
2017-08-18T05:35:21.457Z,275
2017-08-18T05:36:21.459Z,247
2017-08-18T05:37:21.474Z,225
2017-08-18T05:38:21.464Z,225
2017-08-18T05:39:21.535Z,236
2017-08-18T05:40:21.481Z,247
2017-08-18T05:41:21.468Z,253
2017-08-18T05:42:21.447Z,275
2017-08-18T05:43:21.470Z,281
2017-08-18T05:44:21.520Z,298
2017-08-18T05:45:21.448Z,309
2017-08-18T05:46:21.487Z,286
2017-08-18T05:47:21.459Z,303
2017-08-18T05:48:21.415Z,292
2017-08-18T05:49:21.464Z,281
2017-08-18T05:50:21.473Z,264
2017-08-18T05:51:21.469Z,258
2017-08-18T05:52:21.464Z,264
2017-08-18T05:53:21.400Z,230
2017-08-18T05:54:21.476Z,225
2017-08-18T05:55:21.407Z,230
2017-08-18T05:56:21.429Z,230
2017-08-18T05:57:21.451Z,230
2017-08-18T05:58:21.431Z,230
2017-08-18T05:59:21.422Z,236
2017-08-18T06:00:21.487Z,225
2017-08-18T06:01:21.424Z,213
2017-08-18T06:02:21.476Z,196
2017-08-18T06:03:21.492Z,191
2017-08-18T06:04:21.482Z,191
2017-08-18T06:05:21.464Z,180
2017-08-18T06:06:21.479Z,163
2017-08-18T06:07:21.453Z,151
2017-08-18T06:08:21.456Z,151
2017-08-18T06:09:21.441Z,146
2017-08-18T06:10:21.440Z,146
2017-08-18T06:11:21.458Z,168
2017-08-18T06:12:21.473Z,208
2017-08-18T06:13:21.475Z,230
2017-08-18T06:14:21.456Z,230
2017-08-18T06:15:21.442Z,241
2017-08-18T06:16:21.459Z,230
2017-08-18T06:17:21.500Z,208
2017-08-18T06:18:21.543Z,225
2017-08-18T06:19:21.523Z,225
2017-08-18T06:20:21.490Z,225
2017-08-18T06:21:21.486Z,247
2017-08-18T06:22:21.489Z,253
2017-08-18T06:23:21.489Z,253
2017-08-18T06:24:21.524Z,292
2017-08-18T06:25:21.459Z,331
2017-08-18T06:26:21.458Z,343
2017-08-18T06:27:21.460Z,382
2017-08-18T06:28:21.492Z,416
2017-08-18T06:29:21.534Z,455
2017-08-18T06:30:21.465Z,483
2017-08-18T06:31:21.545Z,489
2017-08-18T06:32:21.535Z,483
2017-08-18T06:33:21.527Z,461
2017-08-18T06:34:21.528Z,438
2017-08-18T06:35:21.499Z,410
2017-08-18T06:36:21.532Z,393
2017-08-18T06:37:21.466Z,382
2017-08-18T06:38:21.537Z,360
2017-08-18T06:39:21.573Z,348
2017-08-18T06:40:21.578Z,365
2017-08-18T06:41:21.571Z,405
2017-08-18T06:42:21.512Z,472
2017-08-18T06:43:21.481Z,534
2017-08-18T06:44:21.521Z,556
2017-08-18T06:45:21.539Z,585
2017-08-18T06:46:21.517Z,624
2017-08-18T06:47:21.518Z,601
2017-08-18T06:48:21.548Z,540
2017-08-18T06:49:21.490Z,483
2017-08-18T06:50:21.520Z,421
2017-08-18T06:51:21.544Z,343
2017-08-18T06:52:21.528Z,320
2017-08-18T06:53:21.521Z,348
2017-08-18T06:54:21.525Z,382
2017-08-18T06:55:21.492Z,388
2017-08-18T06:56:21.487Z,410
2017-08-18T06:57:21.520Z,405
2017-08-18T06:58:21.489Z,382
2017-08-18T06:59:21.493Z,388
2017-08-18T07:00:21.587Z,320
2017-08-18T07:01:21.566Z,253
2017-08-18T07:02:21.496Z,230
2017-08-18T07:03:21.494Z,253
2017-08-18T07:04:21.493Z,286
2017-08-18T07:05:21.590Z,281
2017-08-18T07:06:21.564Z,270
2017-08-18T07:07:21.568Z,258
2017-08-18T07:08:21.531Z,253
2017-08-18T07:09:21.534Z,247
2017-08-18T07:10:21.554Z,225
2017-08-18T07:11:21.502Z,258
2017-08-18T07:12:21.524Z,343
2017-08-18T07:13:21.538Z,421
2017-08-18T07:14:21.504Z,410
2017-08-18T07:15:21.576Z,376
2017-08-18T07:16:21.506Z,399
2017-08-18T07:17:21.504Z,399
2017-08-18T07:18:22.629Z,371
2017-08-18T07:20:21.543Z,438
2017-08-18T07:21:21.530Z,450
2017-08-18T07:22:21.598Z,438
2017-08-18T07:23:21.506Z,517
2017-08-18T07:24:21.567Z,585
2017-08-18T07:25:21.510Z,663
2017-08-18T07:26:21.539Z,658
2017-08-18T07:27:21.541Z,607
2017-08-18T07:28:21.570Z,500
2017-08-18T07:29:21.582Z,410
2017-08-18T07:30:21.513Z,393
2017-08-18T07:31:21.535Z,376
2017-08-18T07:32:21.586Z,354
2017-08-18T07:33:21.606Z,331
2017-08-18T07:34:21.544Z,286
2017-08-18T07:35:21.510Z,258
2017-08-18T07:36:21.547Z,286
2017-08-18T07:37:21.517Z,343
2017-08-18T07:38:21.578Z,393
2017-08-18T07:39:21.603Z,427
2017-08-18T07:40:21.601Z,450
2017-08-18T07:41:21.613Z,438
2017-08-18T07:42:21.517Z,371
2017-08-18T07:43:21.512Z,292
2017-08-18T07:44:21.579Z,309
2017-08-18T07:45:21.518Z,371
2017-08-18T07:46:21.582Z,376
2017-08-18T07:47:21.575Z,348
2017-08-18T07:48:21.492Z,286
2017-08-18T07:49:21.530Z,292
2017-08-18T07:50:21.542Z,388
2017-08-18T07:51:21.517Z,466
2017-08-18T07:52:21.540Z,472
2017-08-18T07:53:21.541Z,478
2017-08-18T07:54:21.731Z,500
2017-08-18T07:55:21.497Z,545
2017-08-18T07:56:21.508Z,545
2017-08-18T07:57:21.520Z,466
2017-08-18T07:58:21.496Z,427
2017-08-18T07:59:21.536Z,365
2017-08-18T08:00:21.525Z,298
2017-08-18T08:01:21.538Z,281
2017-08-18T08:02:21.592Z,298
2017-08-18T08:03:21.554Z,298
2017-08-18T08:04:21.536Z,264
2017-08-18T08:05:21.550Z,270
2017-08-18T08:06:21.538Z,270
2017-08-18T08:07:21.565Z,298
2017-08-18T08:08:21.532Z,450
2017-08-18T08:09:21.578Z,438
2017-08-18T08:10:21.625Z,416
2017-08-18T08:11:21.532Z,489
2017-08-18T08:12:21.586Z,545
2017-08-18T08:13:21.557Z,472
2017-08-18T08:14:21.531Z,405
2017-08-18T08:15:21.597Z,405
2017-08-18T08:16:21.592Z,399
2017-08-18T08:17:21.560Z,365
2017-08-18T08:18:21.610Z,371
2017-08-18T08:19:21.559Z,337
2017-08-18T08:20:21.599Z,298
2017-08-18T08:21:21.543Z,281
2017-08-18T08:22:21.568Z,275
2017-08-18T08:23:21.653Z,275
2017-08-18T08:24:21.613Z,298
2017-08-18T08:25:21.576Z,354
2017-08-18T08:26:21.565Z,354
2017-08-18T08:27:21.609Z,326
2017-08-18T08:28:21.606Z,343
2017-08-18T08:29:21.634Z,360
2017-08-18T08:30:21.573Z,348
2017-08-18T08:31:21.551Z,303
2017-08-18T08:32:21.637Z,309
2017-08-18T08:33:21.587Z,343
2017-08-18T08:34:21.598Z,343
2017-08-18T08:35:21.586Z,270
2017-08-18T08:36:21.576Z,185
2017-08-18T08:37:21.586Z,123
2017-08-18T08:38:21.553Z,129
2017-08-18T08:39:21.549Z,140
2017-08-18T08:40:21.642Z,180
2017-08-18T08:41:21.584Z,309
2017-08-18T08:42:21.587Z,427
2017-08-18T08:43:21.587Z,393
2017-08-18T08:44:21.557Z,309
2017-08-18T08:45:21.608Z,247
2017-08-18T08:46:21.585Z,253
2017-08-18T08:47:21.553Z,281
2017-08-18T08:48:21.650Z,202
2017-08-18T08:49:21.556Z,151
2017-08-18T08:50:21.584Z,163
2017-08-18T08:51:21.567Z,174
2017-08-18T08:52:21.593Z,191
2017-08-18T08:53:21.558Z,236
2017-08-18T08:54:21.600Z,270
2017-08-18T08:55:21.593Z,286
2017-08-18T08:56:21.580Z,298
2017-08-18T08:57:21.587Z,286
2017-08-18T08:58:21.580Z,264
2017-08-18T08:59:21.618Z,230
2017-08-18T09:00:21.637Z,219
2017-08-18T09:01:21.597Z,219
2017-08-18T09:02:21.598Z,208
2017-08-18T09:03:21.571Z,191
2017-08-18T09:04:21.628Z,185
2017-08-18T09:05:21.603Z,191
2017-08-18T09:06:21.653Z,185
2017-08-18T09:07:21.601Z,180
2017-08-18T09:08:21.641Z,185
2017-08-18T09:09:21.654Z,185
2017-08-18T09:10:21.589Z,196
2017-08-18T09:11:21.604Z,185
2017-08-18T09:12:21.626Z,185
2017-08-18T09:13:21.631Z,208
2017-08-18T09:14:21.626Z,230
2017-08-18T09:15:21.572Z,219
2017-08-18T09:16:21.579Z,225
2017-08-18T09:17:21.628Z,258
2017-08-18T09:18:21.568Z,309
2017-08-18T09:19:21.611Z,326
2017-08-18T09:20:21.561Z,326
2017-08-18T09:21:21.563Z,326
2017-08-18T09:22:21.595Z,298
2017-08-18T09:23:21.602Z,270
2017-08-18T09:24:21.630Z,281
2017-08-18T09:25:21.612Z,348
2017-08-18T09:26:21.629Z,438
2017-08-18T09:27:21.567Z,461
2017-08-18T09:28:21.583Z,416
2017-08-18T09:29:21.678Z,405
2017-08-18T09:30:21.651Z,433
2017-08-18T09:31:21.636Z,545
2017-08-18T09:32:21.675Z,697
2017-08-18T09:33:21.621Z,765
2017-08-18T09:34:21.617Z,725
2017-08-18T09:35:21.643Z,703
2017-08-18T09:36:21.671Z,753
2017-08-18T09:37:21.592Z,826
2017-08-18T09:38:21.689Z,911
2017-08-18T09:39:21.619Z,984
2017-08-18T09:40:21.678Z,1085
2017-08-18T09:41:21.589Z,1175
2017-08-18T09:42:21.592Z,1198
2017-08-18T09:43:21.612Z,1130
2017-08-18T09:44:21.656Z,1012
2017-08-18T09:45:21.651Z,871
2017-08-18T09:46:21.651Z,798
2017-08-18T09:47:21.649Z,787
2017-08-18T09:48:21.679Z,765
2017-08-18T09:49:21.654Z,742
2017-08-18T09:50:21.774Z,748
2017-08-18T09:51:21.629Z,742
2017-08-18T09:52:21.617Z,753
2017-08-18T09:53:21.652Z,748
2017-08-18T09:54:21.654Z,753
2017-08-18T09:55:21.598Z,815
2017-08-18T09:56:21.622Z,883
2017-08-18T09:57:21.692Z,916
2017-08-18T09:58:21.602Z,933
2017-08-18T09:59:21.699Z,888
2017-08-18T10:00:21.599Z,815
2017-08-18T10:01:21.672Z,770
2017-08-18T10:02:21.624Z,776
2017-08-18T10:03:21.631Z,798
2017-08-18T10:04:21.606Z,798
2017-08-18T10:05:21.632Z,770
2017-08-18T10:06:21.697Z,725
2017-08-18T10:07:21.692Z,658
2017-08-18T10:08:21.643Z,646
2017-08-18T10:09:21.636Z,601
2017-08-18T10:10:21.627Z,652
2017-08-18T10:11:21.630Z,748
2017-08-18T10:12:21.672Z,787
2017-08-18T10:13:21.661Z,798
2017-08-18T10:14:21.705Z,793
2017-08-18T10:15:21.691Z,804
2017-08-18T10:16:21.638Z,720
2017-08-18T10:17:21.645Z,669
2017-08-18T10:18:21.640Z,675
2017-08-18T10:19:21.704Z,748
2017-08-18T10:20:21.677Z,787
2017-08-18T10:21:21.648Z,916
2017-08-18T10:22:21.611Z,995
2017-08-18T10:23:21.670Z,1113
2017-08-18T10:24:21.709Z,1186
2017-08-18T10:25:21.618Z,1248
2017-08-18T10:26:21.677Z,1361
2017-08-18T10:27:21.652Z,1479
2017-08-18T10:28:21.692Z,1608
2017-08-18T10:29:21.670Z,1738
2017-08-18T10:30:21.689Z,1839
2017-08-18T10:31:21.684Z,1918
2017-08-18T10:32:21.694Z,1935
2017-08-18T10:33:21.676Z,1890
2017-08-18T10:34:21.690Z,1816
2017-08-18T10:35:21.713Z,1867
2017-08-18T10:36:21.649Z,2047
2017-08-18T10:37:21.620Z,2238
2017-08-18T10:38:21.694Z,2323
2017-08-18T10:39:21.714Z,2525
2017-08-18T10:40:21.703Z,2401
2017-08-18T10:41:21.662Z,2435
2017-08-18T10:42:21.625Z,2576
2017-08-18T10:43:21.655Z,2711
2017-08-18T10:44:21.656Z,2835
2017-08-18T10:45:21.648Z,2722
2017-08-18T10:46:21.722Z,2711
2017-08-18T10:47:21.728Z,2418
2017-08-18T10:48:21.648Z,2300
2017-08-18T10:49:21.637Z,2542
2017-08-18T10:50:21.773Z,2514
2017-08-18T10:51:21.605Z,2475
2017-08-18T10:52:21.630Z,2475
2017-08-18T10:53:21.624Z,2548
2017-08-18T10:54:21.642Z,2711
2017-08-18T10:55:21.626Z,2784
2017-08-18T10:56:21.630Z,2925
2017-08-18T10:57:21.637Z,2896
2017-08-18T10:58:21.809Z,2868
2017-08-18T10:59:21.665Z,2784
2017-08-18T11:00:21.670Z,2795
2017-08-18T11:01:21.633Z,2835
2017-08-18T11:02:21.723Z,2728
2017-08-18T11:03:21.634Z,2728
2017-08-18T11:04:21.728Z,2728
2017-08-18T11:05:21.672Z,2728
2017-08-18T11:06:21.698Z,2851
2017-08-18T11:07:21.632Z,2874
2017-08-18T11:08:21.727Z,2863
2017-08-18T11:09:21.694Z,2896
2017-08-18T11:10:21.701Z,2925
2017-08-18T11:11:21.662Z,2964
2017-08-18T11:12:21.667Z,2958
2017-08-18T11:13:21.660Z,2958
2017-08-18T11:14:21.659Z,2930
2017-08-18T11:15:21.637Z,2874
2017-08-18T11:16:21.700Z,2773
2017-08-18T11:17:21.642Z,2705
2017-08-18T11:18:21.637Z,2711
2017-08-18T11:19:21.790Z,2784
2017-08-18T11:20:21.664Z,2874
2017-08-18T11:21:21.642Z,2840
2017-08-18T11:22:21.645Z,2857
2017-08-18T11:23:21.661Z,2756
2017-08-18T11:24:21.658Z,2475
2017-08-18T11:25:21.636Z,2385
2017-08-18T11:26:21.662Z,2238
2017-08-18T11:27:21.674Z,2131
2017-08-18T11:28:21.679Z,2013
2017-08-18T11:29:21.686Z,1980
2017-08-18T11:30:21.639Z,2036
2017-08-18T11:31:21.709Z,2092
2017-08-18T11:32:21.647Z,2148
2017-08-18T11:33:21.672Z,2171
2017-08-18T11:34:21.672Z,2188
2017-08-18T11:35:21.706Z,2255
2017-08-18T11:36:21.674Z,2345
2017-08-18T11:37:21.677Z,2317
2017-08-18T11:38:21.676Z,2272
2017-08-18T11:39:21.665Z,2244
2017-08-18T11:40:21.681Z,2182
2017-08-18T11:41:21.677Z,2025
2017-08-18T11:42:21.634Z,1890
2017-08-18T11:43:21.656Z,1856
2017-08-18T11:44:21.676Z,1850
2017-08-18T11:45:21.613Z,1929
2017-08-18T11:46:21.659Z,1929
2017-08-18T11:47:21.648Z,2019
2017-08-18T11:48:21.657Z,2075
2017-08-18T11:49:21.686Z,2030
2017-08-18T11:50:21.688Z,1951
2017-08-18T11:51:21.692Z,1805
2017-08-18T11:52:21.753Z,1704
2017-08-18T11:53:21.665Z,1603
2017-08-18T11:54:21.665Z,1546
2017-08-18T11:55:21.668Z,1541
2017-08-18T11:56:21.673Z,1563
2017-08-18T11:57:21.731Z,1653
2017-08-18T11:58:21.674Z,1749
2017-08-18T11:59:21.704Z,1861
2017-08-18T12:00:21.710Z,1923
2017-08-18T12:01:21.770Z,1957
2017-08-18T12:02:21.691Z,1985
2017-08-18T12:03:21.699Z,2047
2017-08-18T12:04:21.735Z,2176
2017-08-18T12:05:21.673Z,2317
2017-08-18T12:06:21.687Z,2379
2017-08-18T12:07:21.699Z,2334
2017-08-18T12:08:21.734Z,2278
2017-08-18T12:09:21.647Z,2216
2017-08-18T12:10:21.701Z,2205
2017-08-18T12:11:21.672Z,2210
2017-08-18T12:12:21.701Z,2120
2017-08-18T12:13:21.645Z,2013
2017-08-18T12:14:21.673Z,1850
2017-08-18T12:15:21.680Z,1715
2017-08-18T12:16:21.702Z,1659
2017-08-18T12:17:21.677Z,1676
2017-08-18T12:18:21.657Z,1693
2017-08-18T12:19:21.680Z,1732
2017-08-18T12:20:21.780Z,1766
2017-08-18T12:21:21.685Z,1850
2017-08-18T12:22:21.772Z,1906
2017-08-18T12:23:21.743Z,1878
2017-08-18T12:24:21.783Z,1766
2017-08-18T12:25:21.709Z,1659
2017-08-18T12:26:21.759Z,1597
2017-08-18T12:27:21.718Z,1586
2017-08-18T12:28:21.694Z,1625
2017-08-18T12:29:21.687Z,1698
2017-08-18T12:30:21.718Z,1766
2017-08-18T12:31:21.714Z,1783
2017-08-18T12:32:21.749Z,1760
2017-08-18T12:33:21.725Z,1715
2017-08-18T12:34:21.779Z,1659
2017-08-18T12:35:21.756Z,1636
2017-08-18T12:36:21.696Z,1591
2017-08-18T12:37:21.755Z,1518
2017-08-18T12:38:21.790Z,1411
2017-08-18T12:39:21.749Z,1378
2017-08-18T12:40:21.696Z,1389
2017-08-18T12:41:21.786Z,1372
2017-08-18T12:42:21.732Z,1321
2017-08-18T12:43:21.785Z,1260
2017-08-18T12:44:21.699Z,1220
2017-08-18T12:45:21.788Z,1226
2017-08-18T12:46:21.702Z,1271
2017-08-18T12:47:21.734Z,1310
2017-08-18T12:48:21.731Z,1355
2017-08-18T12:49:21.720Z,1445
2017-08-18T12:51:21.786Z,1788
2017-08-18T12:52:21.706Z,1890
2017-08-18T12:53:21.764Z,1901
2017-08-18T12:54:21.739Z,1805
2017-08-18T12:55:21.724Z,1670
2017-08-18T12:56:21.792Z,1552
2017-08-18T12:57:21.760Z,1468
2017-08-18T12:58:21.763Z,1406
2017-08-18T12:59:21.722Z,1355
2017-08-18T13:00:21.703Z,1282
2017-08-18T13:01:21.734Z,1260
2017-08-18T13:02:21.762Z,1276
2017-08-18T13:03:21.723Z,1310
2017-08-18T13:04:21.761Z,1350
2017-08-18T13:05:21.760Z,1389
2017-08-18T13:06:21.703Z,1406
2017-08-18T13:07:21.736Z,1372
2017-08-18T13:08:21.776Z,1400
2017-08-18T13:09:21.779Z,1440
2017-08-18T13:10:21.769Z,1479
2017-08-18T13:11:21.712Z,1524
2017-08-18T13:12:21.738Z,1546
2017-08-18T13:13:21.812Z,1631
2017-08-18T13:14:21.775Z,1755
2017-08-18T13:15:21.743Z,1845
2017-08-18T13:16:21.749Z,1828
2017-08-18T13:17:21.807Z,1794
2017-08-18T13:18:21.747Z,1732
2017-08-18T13:19:21.777Z,1693
2017-08-18T13:20:21.771Z,1659
2017-08-18T13:21:21.719Z,1648
2017-08-18T13:22:21.811Z,1631
2017-08-18T13:23:21.777Z,1614
2017-08-18T13:24:21.760Z,1608
2017-08-18T13:25:21.816Z,1591
2017-08-18T13:26:21.817Z,1552
2017-08-18T13:27:21.818Z,1530
2017-08-18T13:28:21.814Z,1496
2017-08-18T13:29:21.716Z,1445
2017-08-18T13:30:21.738Z,1451
2017-08-18T13:31:21.697Z,1501
2017-08-18T13:32:21.736Z,1552
2017-08-18T13:33:21.683Z,1552
2017-08-18T13:34:21.718Z,1552
2017-08-18T13:35:21.735Z,1490
2017-08-18T13:36:21.743Z,1507
2017-08-18T13:37:21.663Z,1546
2017-08-18T13:38:21.740Z,1648
2017-08-18T13:39:21.755Z,1732
2017-08-18T13:40:21.731Z,1704
2017-08-18T13:41:21.737Z,1586
2017-08-18T13:42:21.729Z,1501
2017-08-18T13:43:21.730Z,1417
2017-08-18T13:44:21.733Z,1423
2017-08-18T13:45:21.746Z,1473
2017-08-18T13:46:21.827Z,1473
2017-08-18T13:47:21.805Z,1456
2017-08-18T13:48:21.790Z,1417
2017-08-18T13:49:21.738Z,1372
2017-08-18T13:50:21.789Z,1288
2017-08-18T13:51:21.819Z,1243
2017-08-18T13:52:21.758Z,1181
2017-08-18T13:53:21.811Z,1130
2017-08-18T13:54:21.744Z,1035
2017-08-18T13:55:21.766Z,984
2017-08-18T13:56:21.756Z,990
2017-08-18T13:57:21.812Z,995
2017-08-18T13:58:21.810Z,978